Time;durP1;ratioP1;P1;durP2;ratioP2;P2;SDS_P1;SDS_P2;PMS_P1;PMS_P2;Temp;Humidity;BMP_temperature;BMP_pressure;BME280_temperature;BME280_humidity;BME280_pressure;Samples;Min_cycle;Max_cycle;Signal;HPM_P1;HPM_P2
2021/06/06 00:00:28;;;;;;;4.57;3.17;;;;;;;13.07;92.03;94122.53;731010;40;20396;-83
2021/06/06 00:01:05;;;;;;;4.18;3.40;;;;;;;13.11;92.00;94127.03;721925;40;20107;-83
2021/06/06 00:01:40;;;;;;;3.45;3.15;;;;;;;13.01;91.84;94106.00;722719;40;20065;-84
2021/06/06 00:02:10;;;;;;;4.65;2.78;;;;;;;13.11;91.60;94121.03;727271;40;20045;-83
2021/06/06 00:02:42;;;;;;;4.80;3.25;;;;;;;13.10;91.78;94125.47;728944;40;20061;-84
2021/06/06 00:03:35;;;;;;;5.15;3.45;;;;;;;13.11;91.89;94126.25;724726;40;20049;-84
2021/06/06 00:04:12;;;;;;;3.67;3.20;;;;;;;13.25;91.83;94127.53;717688;40;20433;-85
2021/06/06 00:04:44;;;;;;;9.65;3.63;;;;;;;13.20;91.86;94124.81;721032;40;20041;-84
2021/06/06 00:05:16;;;;;;;7.68;3.83;;;;;;;13.22;91.86;94129.78;724724;40;20035;-85
2021/06/06 00:05:56;;;;;;;5.30;3.40;;;;;;;13.29;91.58;94133.06;727350;40;20048;-84
2021/06/06 00:06:33;;;;;;;5.68;3.20;;;;;;;13.11;91.69;94127.03;727051;40;20092;-83
2021/06/06 00:07:03;;;;;;;3.92;3.42;;;;;;;13.06;91.82;94121.75;729150;40;20069;-85
2021/06/06 00:07:33;;;;;;;5.47;3.70;;;;;;;12.93;91.95;94111.66;729559;40;20063;-83
2021/06/06 00:08:04;;;;;;;5.65;3.70;;;;;;;13.00;92.02;94124.53;729820;40;20071;-83
2021/06/06 00:08:35;;;;;;;5.22;4.32;;;;;;;12.88;92.29;94101.13;728900;40;20125;-85
2021/06/06 00:09:11;;;;;;;4.45;3.83;;;;;;;13.03;92.05;94114.38;727234;40;20034;-84
2021/06/06 00:09:42;;;;;;;7.57;4.22;;;;;;;12.99;91.83;94112.50;723109;40;20436;-83
2021/06/06 00:10:14;;;;;;;5.60;3.85;;;;;;;13.12;91.99;94122.59;725266;40;20113;-83
2021/06/06 00:10:45;;;;;;;10.52;4.15;;;;;;;13.16;91.98;94115.06;726176;40;20085;-84
2021/06/06 00:11:18;;;;;;;8.10;4.53;;;;;;;13.11;92.05;94121.03;730833;40;20067;-85
2021/06/06 00:11:53;;;;;;;4.78;3.85;;;;;;;13.12;92.04;94126.00;729684;40;20068;-84
2021/06/06 00:12:25;;;;;;;4.43;3.95;;;;;;;13.09;92.03;94128.31;730214;40;20060;-85
2021/06/06 00:12:55;;;;;;;4.25;3.85;;;;;;;13.04;91.74;94109.97;729096;40;20576;-85
2021/06/06 00:13:26;;;;;;;5.85;4.30;;;;;;;13.03;92.31;94124.06;729029;40;20080;-84
2021/06/06 00:13:59;;;;;;;4.20;3.80;;;;;;;13.05;92.13;94122.78;728982;40;21111;-83
2021/06/06 00:14:33;;;;;;;6.90;4.22;;;;;;;13.10;91.80;94120.25;728340;40;20037;-84
2021/06/06 00:15:11;;;;;;;4.65;3.58;;;;;;;13.12;91.67;94133.06;728282;40;20073;-83
2021/06/06 00:15:43;;;;;;;5.75;3.90;;;;;;;13.02;91.77;94118.03;727866;40;20040;-84
2021/06/06 00:16:41;;;;;;;4.00;3.60;;;;;;;13.09;91.79;94126.47;728720;40;20042;-84
2021/06/06 00:17:12;;;;;;;4.13;3.72;;;;;;;12.96;92.05;94120.81;727316;40;20048;-83
2021/06/06 00:17:42;;;;;;;4.97;4.47;;;;;;;12.88;92.12;94106.34;725432;40;20048;-84
2021/06/06 00:18:13;;;;;;;4.95;4.45;;;;;;;12.99;92.33;94123.75;726923;40;30984;-85
2021/06/06 00:18:44;;;;;;;6.78;4.22;;;;;;;12.99;91.96;94117.72;726731;40;20235;-84
2021/06/06 00:19:16;;;;;;;5.47;4.13;;;;;;;13.01;92.18;94129.50;726172;40;20206;-83
2021/06/06 00:19:46;;;;;;;5.82;4.60;;;;;;;12.91;92.39;94123.38;726971;40;20093;-84
2021/06/06 00:20:17;;;;;;;4.82;4.32;;;;;;;12.90;92.33;94127.78;730415;40;20057;-84
2021/06/06 00:20:47;;;;;;;9.63;4.78;;;;;;;12.79;92.21;94105.19;728638;40;20057;-84
2021/06/06 00:21:20;;;;;;;5.25;4.75;;;;;;;12.91;92.46;94118.94;729365;40;20049;-84
2021/06/06 00:21:52;;;;;;;5.43;4.88;;;;;;;12.96;92.39;94133.84;725008;40;20120;-84
2021/06/06 00:22:22;;;;;;;7.22;4.35;;;;;;;12.68;92.27;94088.56;723808;40;20060;-84
2021/06/06 00:22:57;;;;;;;8.65;4.75;;;;;;;12.98;92.67;94122.16;719803;40;20121;-83
2021/06/06 00:23:29;;;;;;;6.68;4.82;;;;;;;13.06;92.44;94126.97;719256;40;20090;-83
2021/06/06 00:24:00;;;;;;;7.78;4.28;;;;;;;13.08;92.17;94130.13;726738;40;20046;-83
2021/06/06 00:24:33;;;;;;;5.00;4.50;;;;;;;12.94;91.94;94100.16;726970;40;20568;-84
2021/06/06 00:25:07;;;;;;;6.57;3.67;;;;;;;13.14;91.73;94132.81;727051;40;20589;-85
2021/06/06 00:25:38;;;;;;;4.85;4.35;;;;;;;13.13;91.76;94129.41;727373;40;20055;-83
2021/06/06 00:26:08;;;;;;;4.65;4.15;;;;;;;13.03;91.94;94118.84;729099;40;20037;-85
2021/06/06 00:26:39;;;;;;;5.80;4.07;;;;;;;13.18;91.84;94132.09;727930;40;20130;-83
2021/06/06 00:27:11;;;;;;;7.50;4.50;;;;;;;13.19;91.59;94138.09;729149;40;20094;-84
2021/06/06 00:27:41;;;;;;;5.65;4.28;;;;;;;12.95;91.73;94114.00;730184;40;20443;-84
2021/06/06 00:28:12;;;;;;;4.43;3.75;;;;;;;13.12;91.54;94127.81;727534;40;20041;-84
2021/06/06 00:28:42;;;;;;;3.80;3.42;;;;;;;13.27;91.53;94137.72;730690;40;20045;-88
2021/06/06 00:29:13;;;;;;;5.55;3.70;;;;;;;13.19;91.26;94125.03;728728;40;21241;-85
2021/06/06 00:29:43;;;;;;;4.75;3.80;;;;;;;13.24;91.36;94127.72;729893;40;21268;-84
2021/06/06 00:30:14;;;;;;;3.47;3.17;;;;;;;13.34;90.88;94138.34;731729;40;20734;-85
2021/06/06 00:30:45;;;;;;;3.88;3.47;;;;;;;13.28;90.96;94118.41;729987;40;20056;-84
2021/06/06 00:31:16;;;;;;;5.65;3.63;;;;;;;13.29;90.58;94122.59;730658;40;20035;-84
2021/06/06 00:31:47;;;;;;;3.90;3.30;;;;;;;13.12;90.82;94099.09;729794;40;20024;-85
2021/06/06 00:32:19;;;;;;;4.00;3.58;;;;;;;13.24;91.03;94125.09;730200;40;20076;-84
2021/06/06 00:32:50;;;;;;;7.25;3.92;;;;;;;13.26;91.38;94125.69;728901;40;20056;-85
2021/06/06 00:33:21;;;;;;;5.57;3.60;;;;;;;13.46;91.12;94138.22;727646;40;20044;-85
2021/06/06 00:33:52;;;;;;;4.85;3.53;;;;;;;13.38;90.90;94128.97;728438;40;20049;-85
2021/06/06 00:34:25;;;;;;;5.07;3.85;;;;;;;13.47;90.74;94134.56;727255;40;21607;-84
2021/06/06 00:34:55;;;;;;;3.40;3.10;;;;;;;13.45;90.78;94136.63;726016;40;20077;-84
2021/06/06 00:35:26;;;;;;;4.78;3.70;;;;;;;13.53;90.82;94139.63;727863;40;20049;-84
2021/06/06 00:35:56;;;;;;;3.55;3.25;;;;;;;13.47;90.40;94127.53;727200;40;20036;-84
2021/06/06 00:36:27;;;;;;;4.05;3.40;;;;;;;13.48;90.29;94131.72;729168;40;20339;-85
2021/06/06 00:36:57;;;;;;;3.92;3.50;;;;;;;13.59;90.49;94142.31;727514;40;20049;-84
2021/06/06 00:37:28;;;;;;;3.55;3.25;;;;;;;13.52;90.21;94132.81;727589;40;20216;-84
2021/06/06 00:37:58;;;;;;;4.18;3.53;;;;;;;13.32;90.07;94119.50;730021;40;21157;-84
2021/06/06 00:38:29;;;;;;;4.60;3.80;;;;;;;13.37;90.42;94137.88;733401;40;20020;-84
2021/06/06 00:39:00;;;;;;;5.10;3.75;;;;;;;13.36;90.75;94141.50;731075;40;20095;-84
2021/06/06 00:39:30;;;;;;;5.95;3.75;;;;;;;13.31;90.81;94125.78;731389;40;20052;-84
2021/06/06 00:40:01;;;;;;;4.13;3.72;;;;;;;13.19;90.90;94101.53;729498;40;20088;-85
2021/06/06 00:40:35;;;;;;;4.15;3.75;;;;;;;13.43;90.82;94136.91;729236;40;20037;-86
2021/06/06 00:41:07;;;;;;;4.38;3.63;;;;;;;13.51;90.41;94135.66;722784;40;20047;-84
2021/06/06 00:41:40;;;;;;;4.70;3.72;;;;;;;13.16;90.02;94083.72;727912;40;20861;-84
2021/06/06 00:42:15;;;;;;;5.68;3.65;;;;;;;13.46;90.35;94133.78;728926;40;20056;-84
2021/06/06 00:42:46;;;;;;;4.15;3.75;;;;;;;13.36;90.16;94132.88;729609;40;20200;-84
2021/06/06 00:43:18;;;;;;;7.13;4.03;;;;;;;13.30;90.58;94130.19;729557;40;20029;-84
2021/06/06 00:43:48;;;;;;;4.45;3.78;;;;;;;13.35;90.28;94129.47;728650;40;20795;-87
2021/06/06 00:44:19;;;;;;;7.20;4.22;;;;;;;13.31;90.79;94133.59;728960;40;20068;-85
2021/06/06 00:44:50;;;;;;;7.03;4.35;;;;;;;13.25;90.84;94121.47;729943;40;20037;-85
2021/06/06 00:45:24;;;;;;;4.53;4.13;;;;;;;13.43;90.17;94136.09;730685;40;20092;-84
2021/06/06 00:45:55;;;;;;;4.95;4.47;;;;;;;13.43;90.03;94136.09;728949;40;20061;-87
2021/06/06 00:46:28;;;;;;;5.10;4.60;;;;;;;13.49;90.40;94130.69;728493;40;21067;-84
2021/06/06 00:46:58;;;;;;;4.45;4.05;;;;;;;13.38;90.56;94122.97;727184;40;20048;-84
2021/06/06 00:47:29;;;;;;;4.40;4.00;;;;;;;13.38;91.04;94128.97;729033;40;20137;-83
2021/06/06 00:48:00;;;;;;;4.88;4.38;;;;;;;13.42;90.78;94137.91;728574;40;20033;-86
2021/06/06 00:48:30;;;;;;;5.07;4.57;;;;;;;13.22;90.80;94132.38;728734;40;20952;-85
2021/06/06 00:49:01;;;;;;;6.55;4.55;;;;;;;13.39;91.25;94141.00;726474;40;20057;-84
2021/06/06 00:49:31;;;;;;;5.78;5.28;;;;;;;13.38;90.80;94131.59;728734;40;21432;-85
2021/06/06 00:50:08;;;;;;;5.53;4.93;;;;;;;13.28;90.87;94129.66;727253;40;20113;-83
2021/06/06 00:50:42;;;;;;;6.35;5.32;;;;;;;13.28;91.16;94121.81;728119;40;20068;-85
2021/06/06 00:51:22;;;;;;;6.78;4.90;;;;;;;13.31;90.88;94133.59;725367;40;20049;-84
2021/06/06 00:51:58;;;;;;;5.18;4.70;;;;;;;13.40;90.93;94124.31;721513;40;20432;-87
2021/06/06 00:52:32;;;;;;;5.93;4.88;;;;;;;13.27;90.65;94108.97;721705;40;20034;-85
2021/06/06 00:53:07;;;;;;;5.72;4.65;;;;;;;13.50;90.56;94134.88;726244;40;20059;-85
2021/06/06 00:53:45;;;;;;;7.07;4.45;;;;;;;13.48;90.65;94131.72;717301;40;20038;-84
2021/06/06 00:54:20;;;;;;;7.07;4.38;;;;;;;13.50;90.33;94128.88;722143;40;20054;-85
2021/06/06 00:54:52;;;;;;;4.95;4.45;;;;;;;13.51;90.24;94118.19;723617;40;20065;-84
2021/06/06 00:55:23;;;;;;;5.22;4.60;;;;;;;13.33;89.85;94114.03;726704;40;20317;-84
2021/06/06 00:55:54;;;;;;;5.97;5.38;;;;;;;13.30;90.67;94114.50;729207;40;20069;-84
2021/06/06 00:56:26;;;;;;;5.75;5.20;;;;;;;13.36;90.87;94130.25;726792;40;20075;-85
2021/06/06 00:57:19;;;;;;;6.05;5.35;;;;;;;13.24;91.22;94133.72;726638;40;20049;-84
2021/06/06 00:57:50;;;;;;;5.50;4.93;;;;;;;13.38;91.47;94134.22;727749;40;20168;-84
2021/06/06 00:58:21;;;;;;;15.52;5.85;;;;;;;13.30;91.31;94124.16;730364;40;20073;-85
2021/06/06 00:58:55;;;;;;;6.18;5.13;;;;;;;13.36;91.32;94127.63;730195;40;20029;-85
2021/06/06 00:59:27;;;;;;;6.63;5.43;;;;;;;13.26;91.13;94095.13;727978;40;20049;-85
2021/06/06 01:00:10;;;;;;;8.13;6.00;;;;;;;13.51;91.14;94126.03;728670;40;20025;-83
2021/06/06 01:00:48;;;;;;;6.57;5.53;;;;;;;13.46;90.88;94122.56;727561;40;20107;-84
2021/06/06 01:01:21;;;;;;;6.25;5.30;;;;;;;13.32;90.58;94111.66;727140;40;20053;-84
2021/06/06 01:01:51;;;;;;;7.88;5.68;;;;;;;13.52;90.47;94132.03;727363;40;20073;-84
2021/06/06 01:02:22;;;;;;;6.30;5.40;;;;;;;13.47;90.62;94108.44;727646;40;20057;-85
2021/06/06 01:02:52;;;;;;;7.00;5.60;;;;;;;13.64;90.95;94130.09;728353;40;20517;-84
2021/06/06 01:03:25;;;;;;;6.40;5.80;;;;;;;13.39;90.74;94107.03;730121;40;20083;-83
2021/06/06 01:03:57;;;;;;;5.50;5.00;;;;;;;13.42;90.81;94126.66;728936;40;20060;-85
2021/06/06 01:04:28;;;;;;;5.38;4.80;;;;;;;13.39;90.78;94114.88;728853;40;20071;-84
2021/06/06 01:04:58;;;;;;;6.60;5.63;;;;;;;13.32;90.08;94116.88;729082;40;20240;-85
2021/06/06 01:05:45;;;;;;;6.35;5.60;;;;;;;13.45;90.47;94132.22;728839;40;20105;-85
2021/06/06 01:06:30;;;;;;;6.63;5.93;;;;;;;13.25;90.76;94122.31;729213;40;20146;-83
2021/06/06 01:07:01;;;;;;;6.65;5.85;;;;;;;13.32;90.73;94119.50;724663;40;20065;-84
2021/06/06 01:07:31;;;;;;;7.05;6.00;;;;;;;13.29;91.01;94122.59;729725;40;20064;-84
2021/06/06 01:08:07;;;;;;;7.07;6.30;;;;;;;13.37;91.04;94132.63;728645;40;20237;-84
2021/06/06 01:08:39;;;;;;;6.88;5.80;;;;;;;13.36;90.80;94127.63;727547;40;20069;-85
2021/06/06 01:09:13;;;;;;;8.10;6.72;;;;;;;13.32;90.74;94129.94;728492;40;21994;-84
2021/06/06 01:09:43;;;;;;;6.78;6.05;;;;;;;13.32;90.72;94114.28;721037;40;20742;-85
2021/06/06 01:10:14;;;;;;;6.72;5.95;;;;;;;13.21;90.63;94091.63;725192;40;20407;-85
2021/06/06 01:10:50;;;;;;;7.50;6.63;;;;;;;13.43;90.70;94129.06;727571;40;20052;-84
2021/06/06 01:11:37;;;;;;;7.15;6.45;;;;;;;13.35;90.65;94126.84;718439;40;21048;-83
2021/06/06 01:12:13;;;;;;;7.95;6.53;;;;;;;13.49;90.93;94133.31;717823;40;20050;-84
2021/06/06 01:12:58;;;;;;;7.82;6.35;;;;;;;13.42;90.49;94116.22;725466;40;20057;-85
2021/06/06 01:13:46;;;;;;;7.32;5.63;;;;;;;13.42;90.76;94111.78;727265;40;20061;-85
2021/06/06 01:14:21;;;;;;;8.15;6.40;;;;;;;13.35;90.57;94124.25;725909;40;20060;-85
2021/06/06 01:15:01;;;;;;;7.20;6.45;;;;;;;13.27;91.11;94125.44;725051;40;20052;-84
2021/06/06 01:15:35;;;;;;;9.63;7.20;;;;;;;13.33;91.36;94118.47;718565;40;20140;-83
2021/06/06 01:16:22;;;;;;;9.10;7.15;;;;;;;13.34;91.25;94126.06;724823;40;20061;-84
2021/06/06 01:16:59;;;;;;;10.88;7.28;;;;;;;13.30;91.10;94127.56;721001;40;20048;-86
2021/06/06 01:17:41;;;;;;;7.88;6.78;;;;;;;13.29;91.51;94130.44;726645;40;20145;-84
2021/06/06 01:18:28;;;;;;;8.00;7.18;;;;;;;13.34;91.09;94125.28;724985;40;20199;-85
2021/06/06 01:19:01;;;;;;;8.27;6.95;;;;;;;13.26;91.26;94123.88;727468;40;20065;-84
2021/06/06 01:19:34;;;;;;;9.35;7.60;;;;;;;13.27;91.18;94124.66;728294;40;20041;-84
2021/06/06 01:20:25;;;;;;;14.90;9.40;;;;;;;13.21;91.23;94125.59;728984;40;20032;-86
2021/06/06 01:21:20;;;;;;;9.50;8.45;;;;;;;13.15;91.92;94123.94;720228;40;20037;-85
2021/06/06 01:22:29;;;;;;;9.65;8.13;;;;;;;13.22;91.15;94103.66;726929;40;20106;-85
2021/06/06 01:23:08;;;;;;;8.52;6.97;;;;;;;13.42;91.56;94124.84;721302;40;20064;-85
2021/06/06 01:23:57;;;;;;;10.07;8.20;;;;;;;13.46;91.01;94125.94;722280;40;20053;-85
2021/06/06 01:24:37;;;;;;;9.18;7.55;;;;;;;13.47;91.07;94126.75;722079;40;20437;-86
2021/06/06 01:25:13;;;;;;;9.55;8.55;;;;;;;13.37;90.50;94119.56;727058;40;20085;-84
2021/06/06 01:25:46;;;;;;;9.23;7.78;;;;;;;13.29;90.51;94110.31;725082;40;20295;-84
2021/06/06 01:26:28;;;;;;;9.13;8.13;;;;;;;13.28;90.80;94119.22;725986;40;20642;-84
2021/06/06 01:27:07;;;;;;;9.60;8.05;;;;;;;13.38;90.91;94120.34;727446;40;20223;-83
2021/06/06 01:27:44;;;;;;;10.32;9.23;;;;;;;13.29;91.09;94125.22;727802;40;20692;-84
2021/06/06 01:28:23;;;;;;;14.35;10.00;;;;;;;13.17;91.11;94114.84;729508;40;20449;-83
2021/06/06 01:29:18;;;;;;;11.75;10.23;;;;;;;13.10;91.27;94107.19;722444;40;20199;-84
2021/06/06 01:30:09;;;;;;;11.63;9.15;;;;;;;13.16;91.27;94113.25;726741;40;20053;-84
2021/06/06 01:30:45;;;;;;;10.93;9.02;;;;;;;13.30;91.30;94119.72;728161;39;20161;-84
2021/06/06 01:31:18;;;;;;;11.88;9.73;;;;;;;13.12;91.49;94080.81;731898;40;20260;-84
2021/06/06 01:31:53;;;;;;;12.10;10.02;;;;;;;13.33;91.21;94113.25;731811;40;20068;-83
2021/06/06 01:32:49;;;;;;;15.30;10.23;;;;;;;13.36;91.48;94117.97;725211;40;20057;-84
2021/06/06 01:33:25;;;;;;;11.65;9.23;;;;;;;13.36;90.83;94114.56;729494;40;20036;-85
2021/06/06 01:34:00;;;;;;;12.27;9.57;;;;;;;13.33;91.21;94118.47;730115;40;21779;-84
2021/06/06 01:34:32;;;;;;;17.15;9.93;;;;;;;13.37;91.20;94124.00;730221;40;20107;-84
2021/06/06 01:35:07;;;;;;;14.98;11.73;;;;;;;13.29;90.99;94114.75;730237;40;20064;-85
2021/06/06 01:35:51;;;;;;;14.32;11.75;;;;;;;13.39;91.14;94120.09;726916;40;20196;-84
2021/06/06 01:36:33;;;;;;;17.73;13.38;;;;;;;13.21;90.74;94115.94;728173;40;20065;-84
2021/06/06 01:37:11;;;;;;;18.58;14.73;;;;;;;13.19;91.83;94118.00;727121;40;20124;-83
2021/06/06 01:37:47;;;;;;;20.88;15.25;;;;;;;13.20;91.21;94118.81;729804;40;20029;-85
2021/06/06 01:38:20;;;;;;;20.00;15.43;;;;;;;13.21;91.02;94120.38;730413;40;20037;-83
2021/06/06 01:38:57;;;;;;;20.58;17.10;;;;;;;13.19;91.17;94123.25;721528;40;20077;-83
2021/06/06 01:39:45;;;;;;;21.52;16.55;;;;;;;13.14;91.23;94106.72;724601;40;20034;-83
2021/06/06 01:40:24;;;;;;;24.60;17.75;;;;;;;13.14;91.15;94117.94;725852;40;20116;-84
2021/06/06 01:41:00;;;;;;;23.42;18.30;;;;;;;13.05;91.65;94120.16;726223;40;20331;-83
2021/06/06 01:41:36;;;;;;;24.95;19.10;;;;;;;13.14;91.49;94123.16;728251;40;20072;-84
2021/06/06 01:42:16;;;;;;;25.80;18.50;;;;;;;13.21;91.49;94120.38;729730;40;20040;-83
2021/06/06 01:42:50;;;;;;;23.70;18.52;;;;;;;13.26;91.30;94118.66;727878;40;20199;-84
2021/06/06 01:43:27;;;;;;;23.40;17.63;;;;;;;13.29;91.25;94122.59;729153;40;20065;-84
2021/06/06 01:43:58;;;;;;;22.65;17.13;;;;;;;13.26;91.17;94112.63;727034;40;20504;-84
2021/06/06 01:44:31;;;;;;;22.60;17.80;;;;;;;13.29;91.28;94117.38;727551;40;20168;-84
2021/06/06 01:45:16;;;;;;;23.25;18.35;;;;;;;13.15;91.18;94110.88;728589;40;20461;-84
2021/06/06 01:45:52;;;;;;;24.63;18.27;;;;;;;13.22;91.56;94112.31;721006;40;20113;-84
2021/06/06 01:46:27;;;;;;;27.73;20.67;;;;;;;13.14;91.69;94122.38;718722;40;20031;-84
2021/06/06 01:47:23;;;;;;;29.42;21.08;;;;;;;13.10;91.62;94125.47;720081;40;20096;-83
2021/06/06 01:47:59;;;;;;;29.90;20.95;;;;;;;13.00;91.54;94109.66;726264;40;20047;-83
2021/06/06 01:48:32;;;;;;;26.60;19.63;;;;;;;13.14;91.68;94122.38;721285;40;20217;-83
2021/06/06 01:49:05;;;;;;;27.33;20.05;;;;;;;13.08;91.69;94117.09;722271;40;20092;-84
2021/06/06 01:49:45;;;;;;;30.60;21.92;;;;;;;13.12;91.79;94122.59;725459;40;20045;-84
2021/06/06 01:50:21;;;;;;;29.77;22.35;;;;;;;13.06;91.71;94126.97;724633;40;20667;-84
2021/06/06 01:51:02;;;;;;;30.77;22.05;;;;;;;13.06;91.61;94123.56;720567;40;20042;-83
2021/06/06 01:51:40;;;;;;;28.20;20.77;;;;;;;13.13;92.06;94118.94;723869;40;20049;-84
2021/06/06 01:52:12;;;;;;;29.45;21.95;;;;;;;13.15;91.98;94124.72;724642;40;20159;-84
2021/06/06 01:52:44;;;;;;;30.20;23.02;;;;;;;13.11;91.61;94119.22;727747;40;20151;-83
2021/06/06 01:53:16;;;;;;;30.88;22.40;;;;;;;13.08;91.56;94122.31;727061;40;20049;-83
2021/06/06 01:53:49;;;;;;;31.70;22.88;;;;;;;13.05;91.95;94122.00;727232;40;20397;-83
2021/06/06 01:54:22;;;;;;;37.50;23.33;;;;;;;13.14;91.85;94127.59;730380;40;20048;-84
2021/06/06 01:54:54;;;;;;;35.25;25.73;;;;;;;12.86;91.81;94116.25;728576;40;20116;-84
2021/06/06 01:55:30;;;;;;;37.40;27.42;;;;;;;12.89;91.89;94119.16;729947;40;20048;-85
2021/06/06 01:56:05;;;;;;;39.70;27.58;;;;;;;12.91;92.11;94120.75;729510;40;20415;-84
2021/06/06 01:56:40;;;;;;;34.97;26.80;;;;;;;13.00;92.12;94125.31;725029;40;20058;-84
2021/06/06 01:57:15;;;;;;;37.28;27.60;;;;;;;12.89;91.93;94113.16;724604;40;20045;-83
2021/06/06 01:57:47;;;;;;;36.97;27.23;;;;;;;12.89;92.02;94118.38;724977;40;20471;-85
2021/06/06 01:58:20;;;;;;;42.00;29.05;;;;;;;12.86;92.06;94117.03;728539;40;20054;-87
2021/06/06 01:58:56;;;;;;;39.08;28.88;;;;;;;13.01;92.09;94107.81;729340;40;20053;-85
2021/06/06 01:59:38;;;;;;;38.10;28.25;;;;;;;13.02;91.95;94112.81;724810;40;20695;-84
2021/06/06 02:00:32;;;;;;;34.00;25.35;;;;;;;13.01;91.61;94113.84;723989;40;20057;-84
2021/06/06 02:01:18;;;;;;;32.25;23.10;;;;;;;13.07;91.78;94109.47;722771;40;20026;-84
2021/06/06 02:01:49;;;;;;;35.00;24.67;;;;;;;13.17;91.55;94125.28;727416;40;20064;-83
2021/06/06 02:02:20;;;;;;;37.97;26.42;;;;;;;13.18;91.51;94124.25;730336;40;20072;-84
2021/06/06 02:02:52;;;;;;;38.13;26.05;;;;;;;13.14;91.46;94114.53;731332;40;20040;-84
2021/06/06 02:03:24;;;;;;;35.22;24.65;;;;;;;13.17;91.44;94122.69;728786;40;20163;-84
2021/06/06 02:03:57;;;;;;;37.55;27.08;;;;;;;12.93;91.32;94093.38;723544;40;20061;-84
2021/06/06 02:04:28;;;;;;;36.08;26.48;;;;;;;13.14;91.72;94123.16;724239;40;20440;-84
2021/06/06 02:04:59;;;;;;;39.33;27.95;;;;;;;13.11;91.72;94121.81;729426;40;20041;-83
2021/06/06 02:05:29;;;;;;;40.35;28.63;;;;;;;12.93;91.69;94101.22;723317;40;22427;-84
2021/06/06 02:06:01;;;;;;;39.40;25.90;;;;;;;13.08;91.85;94118.91;731978;40;20119;-84
2021/06/06 02:06:41;;;;;;;37.42;28.95;;;;;;;13.11;91.97;94121.81;725314;40;20298;-84
2021/06/06 02:07:21;;;;;;;40.28;28.42;;;;;;;13.00;91.62;94120.09;727747;40;20037;-85
2021/06/06 02:07:52;;;;;;;37.05;28.08;;;;;;;13.01;91.72;94121.66;726435;40;20068;-85
2021/06/06 02:08:32;;;;;;;37.38;27.95;;;;;;;12.95;91.71;94108.78;730345;40;20037;-84
2021/06/06 02:09:07;;;;;;;38.15;27.92;;;;;;;13.06;91.72;94115.72;731702;40;20474;-84
2021/06/06 02:09:50;;;;;;;42.22;28.33;;;;;;;13.09;91.81;94120.47;728436;40;20081;-84
2021/06/06 02:10:37;;;;;;;38.05;26.17;;;;;;;12.99;92.07;94113.31;728897;40;20041;-85
2021/06/06 02:11:21;;;;;;;38.63;26.38;;;;;;;13.02;91.85;94110.22;727574;40;20034;-83
2021/06/06 02:11:55;;;;;;;39.10;26.58;;;;;;;12.90;91.62;94093.84;722369;40;20056;-84
2021/06/06 02:12:30;;;;;;;33.70;25.42;;;;;;;13.02;91.60;94112.81;727211;40;20063;-84
2021/06/06 02:13:07;;;;;;;40.15;27.80;;;;;;;12.96;91.61;94126.84;729342;40;20064;-83
2021/06/06 02:13:44;;;;;;;36.75;26.58;;;;;;;12.87;91.52;94120.41;729389;40;20308;-83
2021/06/06 02:14:19;;;;;;;40.03;26.33;;;;;;;12.88;92.12;94112.34;721039;40;20042;-84
2021/06/06 02:14:51;;;;;;;43.85;30.60;;;;;;;12.79;91.93;94113.81;725512;40;20105;-83
2021/06/06 02:15:30;;;;;;;43.25;31.00;;;;;;;12.77;92.12;94112.44;727758;40;20416;-83
2021/06/06 02:16:03;;;;;;;42.50;28.15;;;;;;;12.75;92.03;94091.00;728859;40;20120;-82
2021/06/06 02:16:39;;;;;;;39.10;27.85;;;;;;;12.91;91.76;94113.72;728981;40;20137;-83
2021/06/06 02:17:25;;;;;;;41.67;26.92;;;;;;;12.85;91.99;94114.66;722902;40;20137;-82
2021/06/06 02:17:57;;;;;;;45.00;29.65;;;;;;;12.80;92.10;94111.97;727866;40;20064;-83
2021/06/06 02:18:29;;;;;;;44.10;29.83;;;;;;;12.80;92.16;94114.59;729359;40;20384;-83
2021/06/06 02:19:00;;;;;;;46.88;31.77;;;;;;;12.77;92.29;94118.47;730615;40;20068;-84
2021/06/06 02:19:36;;;;;;;43.15;30.98;;;;;;;12.41;92.17;94065.75;729378;40;20182;-83
2021/06/06 02:20:09;;;;;;;44.97;29.48;;;;;;;12.83;92.31;94120.13;728887;40;20048;-83
2021/06/06 02:20:43;;;;;;;49.17;32.80;;;;;;;12.78;92.37;94117.41;708856;40;20041;-84
2021/06/06 02:21:16;;;;;;;53.47;32.72;;;;;;;12.65;92.51;94108.09;728025;40;20053;-83
2021/06/06 02:21:46;;;;;;;54.85;33.75;;;;;;;12.64;92.50;94116.16;723909;40;20484;-83
2021/06/06 02:22:18;;;;;;;48.42;32.78;;;;;;;12.70;92.53;94111.81;720969;40;20298;-83
2021/06/06 02:22:49;;;;;;;44.50;31.73;;;;;;;12.73;92.31;94119.16;727023;40;21035;-83
2021/06/06 02:23:23;;;;;;;48.58;31.10;;;;;;;12.75;92.29;94117.13;729697;40;21018;-83
2021/06/06 02:23:54;;;;;;;52.22;32.03;;;;;;;12.75;92.39;94120.50;722062;40;20129;-84
2021/06/06 02:24:25;;;;;;;45.05;28.52;;;;;;;12.77;92.31;94115.06;728616;40;21998;-83
2021/06/06 02:24:57;;;;;;;46.40;32.45;;;;;;;12.74;92.28;94116.31;729295;40;20440;-83
2021/06/06 02:25:27;;;;;;;43.50;28.13;;;;;;;12.80;92.19;94111.97;728004;40;20126;-83
2021/06/06 02:26:12;;;;;;;46.08;30.75;;;;;;;12.78;92.35;94100.97;723677;40;21279;-84
2021/06/06 02:27:04;;;;;;;43.63;29.35;;;;;;;12.87;92.20;94116.00;726319;40;20057;-84
2021/06/06 02:28:19;;;;;;;43.00;29.33;;;;;;;12.83;92.22;94112.28;721169;40;20064;-84
2021/06/06 02:28:57;;;;;;;40.90;26.60;;;;;;;12.84;92.18;94102.63;729156;40;20508;-84
2021/06/06 02:29:56;;;;;;;45.33;28.27;;;;;;;12.87;92.36;94116.00;724304;40;20243;-83
2021/06/06 02:30:41;;;;;;;43.60;26.85;;;;;;;12.82;92.37;94113.31;720393;40;20108;-84
2021/06/06 02:31:24;;;;;;;47.60;29.83;;;;;;;12.84;92.12;94106.06;725108;40;20062;-83
2021/06/06 02:34:34;;;;;;;40.72;22.83;;;;;;;12.87;92.13;94112.59;695028;41;20530;-83
2021/06/06 02:35:08;;;;;;;38.80;25.63;;;;;;;12.75;92.32;94109.28;696457;41;20066;-84
2021/06/06 02:36:03;;;;;;;39.75;26.95;;;;;;;12.85;92.54;94122.50;700582;41;20481;-84
2021/06/06 02:36:36;;;;;;;46.03;28.10;;;;;;;12.75;92.06;94107.47;709702;40;20049;-84
2021/06/06 02:37:15;;;;;;;43.95;28.80;;;;;;;12.74;92.38;94107.72;706355;41;20474;-84
2021/06/06 02:38:08;;;;;;;43.92;28.85;;;;;;;12.86;92.35;94117.03;703351;41;20129;-85
2021/06/06 02:38:54;;;;;;;41.13;27.83;;;;;;;12.82;92.14;94113.31;707287;41;20053;-84
2021/06/06 02:39:34;;;;;;;42.58;28.15;;;;;;;12.66;92.20;94107.06;710969;40;20057;-84
2021/06/06 02:40:14;;;;;;;49.78;30.60;;;;;;;12.63;92.65;94104.16;712151;40;20092;-84
2021/06/06 02:40:49;;;;;;;;;;;;;;;12.65;92.52;94112.53;706387;40;20064;-84
2021/06/06 02:41:25;;;;;;;43.17;28.38;;;;;;;12.71;92.79;94116.03;711661;40;20385;-84
2021/06/06 02:42:14;;;;;;;45.92;30.10;;;;;;;12.74;92.34;94108.50;713499;40;20084;-85
2021/06/06 02:42:46;;;;;;;45.17;29.42;;;;;;;12.64;92.31;94090.88;711438;41;20295;-83
2021/06/06 02:43:38;;;;;;;41.33;28.13;;;;;;;12.79;92.40;94105.19;713094;41;20115;-84
2021/06/06 02:44:22;;;;;;;42.25;27.48;;;;;;;12.79;92.10;94110.41;709357;41;20401;-83
2021/06/06 02:45:18;;;;;;;41.58;27.75;;;;;;;12.78;92.01;94108.81;711108;41;20041;-84
2021/06/06 02:45:52;;;;;;;42.35;26.27;;;;;;;12.78;92.24;94106.19;708905;41;20065;-83
2021/06/06 02:46:24;;;;;;;44.30;29.52;;;;;;;12.69;91.88;94107.63;709529;41;20064;-84
2021/06/06 02:46:57;;;;;;;43.17;29.38;;;;;;;12.57;92.20;94079.00;711299;41;20060;-84
2021/06/06 02:47:32;;;;;;;45.58;31.00;;;;;;;12.66;92.53;94107.06;711701;41;20458;-85
2021/06/06 02:48:17;;;;;;;48.60;31.73;;;;;;;12.71;92.64;94108.97;711906;40;20216;-85
2021/06/06 02:49:01;;;;;;;44.40;29.77;;;;;;;12.80;92.18;94117.19;711503;40;20119;-85
2021/06/06 02:49:36;;;;;;;46.35;29.90;;;;;;;12.80;92.30;94111.97;711710;40;20029;-84
2021/06/06 02:50:14;;;;;;;43.97;28.40;;;;;;;12.81;91.82;94118.75;712464;40;20472;-84
2021/06/06 02:50:47;;;;;;;45.08;29.55;;;;;;;12.69;91.98;94105.81;708774;41;20041;-86
2021/06/06 02:51:22;;;;;;;44.63;29.73;;;;;;;12.71;92.41;94110.81;709258;41;20034;-84
2021/06/06 02:52:01;;;;;;;46.13;29.77;;;;;;;12.66;92.28;94122.72;703606;41;20049;-83
2021/06/06 02:52:40;;;;;;;42.13;28.45;;;;;;;12.58;92.01;94107.50;709645;41;20182;-84